Time;durP1;ratioP1;P1;durP2;ratioP2;P2;SDS_P1;SDS_P2;PMS_P1;PMS_P2;Temp;Humidity;BMP_temperature;BMP_pressure;BME280_temperature;BME280_humidity;BME280_pressure;Samples;Min_cycle;Max_cycle;Signal;HPM_P1;HPM_P2
2023/08/21 00:02:04;;;;;;;6.32;3.97;;;26.10;69.90;;;;;;5074421;28;20202;-46
2023/08/21 00:04:30;;;;;;;6.38;3.80;;;26.10;70.00;;;;;;5074012;28;20084;-41
2023/08/21 00:06:56;;;;;;;9.20;3.83;;;26.10;70.00;;;;;;5074443;28;20523;-41
2023/08/21 00:09:22;;;;;;;6.47;4.03;;;26.10;70.00;;;;;;5074399;28;20498;-41
2023/08/21 00:11:47;;;;;;;6.00;3.72;;;26.10;70.00;;;;;;5074310;28;20043;-42
2023/08/21 00:14:13;;;;;;;5.93;3.70;;;26.10;70.00;;;;;;5073807;28;20102;-41
2023/08/21 00:16:39;;;;;;;6.38;3.97;;;26.10;70.10;;;;;;5074163;28;20023;-41
2023/08/21 00:19:05;;;;;;;6.55;3.55;;;26.10;70.10;;;;;;5074281;28;20198;-41
2023/08/21 00:21:30;;;;;;;5.50;3.97;;;26.10;70.10;;;;;;5074078;28;20025;-41
2023/08/21 00:23:56;;;;;;;7.88;4.00;;;26.10;70.10;;;;;;5073797;28;20033;-45
2023/08/21 00:26:22;;;;;;;5.18;3.70;;;26.10;70.20;;;;;;5074039;28;20100;-50
2023/08/21 00:28:48;;;;;;;6.63;4.10;;;26.10;70.10;;;;;;5074077;28;20454;-45
2023/08/21 00:31:13;;;;;;;5.63;3.63;;;26.10;70.20;;;;;;5072743;28;20487;-48
2023/08/21 00:33:39;;;;;;;6.78;4.07;;;26.10;70.20;;;;;;5072420;28;20483;-47
2023/08/21 00:36:05;;;;;;;6.00;3.80;;;26.10;70.20;;;;;;5074114;28;20031;-44
2023/08/21 00:38:31;;;;;;;7.20;4.30;;;26.10;70.20;;;;;;5073939;28;20053;-48
2023/08/21 00:40:58;;;;;;;6.18;3.90;;;26.10;70.30;;;;;;5072640;28;20024;-48
2023/08/21 00:43:24;;;;;;;4.70;3.58;;;26.10;70.20;;;;;;5073476;28;20043;-48
2023/08/21 00:45:50;;;;;;;6.55;4.22;;;26.10;70.20;;;;;;5073676;28;20032;-49
2023/08/21 00:48:17;;;;;;;6.28;4.20;;;26.10;70.30;;;;;;5073677;28;20050;-49
2023/08/21 00:50:44;;;;;;;6.60;4.10;;;26.10;70.30;;;;;;5073569;28;20108;-47
2023/08/21 00:53:10;;;;;;;7.15;4.10;;;26.10;70.30;;;;;;5073189;28;20029;-44
2023/08/21 00:55:37;;;;;;;8.05;4.68;;;26.10;70.30;;;;;;5073565;28;20031;-48
2023/08/21 00:58:04;;;;;;;7.80;3.95;;;26.10;70.30;;;;;;5073508;28;20481;-44
2023/08/21 01:00:30;;;;;;;6.18;3.70;;;26.10;70.30;;;;;;5073381;28;20025;-45
2023/08/21 01:02:56;;;;;;;6.75;4.35;;;26.10;70.30;;;;;;5071779;28;20503;-46
2023/08/21 01:05:23;;;;;;;5.75;3.70;;;26.10;70.40;;;;;;5072074;28;20563;-47
2023/08/21 01:08:19;;;;;;;5.95;4.00;;;26.10;70.40;;;;;;5073270;28;20070;-46
2023/08/21 01:11:41;;;;;;;5.68;3.85;;;26.10;70.40;;;;;;5073172;28;20028;-49
2023/08/21 01:14:35;;;;;;;6.25;4.15;;;26.10;70.40;;;;;;5050451;28;20037;-45
2023/08/21 01:17:04;;;;;;;9.20;4.47;;;26.10;70.50;;;;;;5050752;28;20059;-46
2023/08/21 01:19:45;;;;;;;5.60;4.13;;;26.10;70.50;;;;;;5034154;28;20060;-49
2023/08/21 01:22:11;;;;;;;5.85;4.45;;;26.10;70.50;;;;;;5050698;28;20500;-47
2023/08/21 01:24:37;;;;;;;5.55;3.88;;;26.10;70.50;;;;;;5033645;28;20136;-45
2023/08/21 01:27:03;;;;;;;5.70;3.95;;;26.10;70.50;;;;;;5033906;28;20116;-43
2023/08/21 01:29:30;;;;;;;6.90;4.13;;;26.00;70.50;;;;;;5033814;28;20066;-47
2023/08/21 01:32:06;;;;;;;6.03;4.00;;;26.10;70.60;;;;;;5033946;28;20025;-47
2023/08/21 01:34:34;;;;;;;5.30;3.90;;;26.00;70.50;;;;;;5033509;28;20041;-45
2023/08/21 01:37:01;;;;;;;5.32;3.75;;;26.10;70.70;;;;;;5050459;28;20499;-46
2023/08/21 01:39:28;;;;;;;5.53;4.10;;;26.10;70.60;;;;;;5050385;28;20071;-45
2023/08/21 01:41:53;;;;;;;4.75;3.88;;;26.10;70.70;;;;;;5050325;28;20459;-44
2023/08/21 01:44:20;;;;;;;6.95;4.30;;;26.10;70.70;;;;;;5033244;28;20524;-41
2023/08/21 01:46:46;;;;;;;5.93;4.25;;;26.10;70.70;;;;;;5035817;28;20036;-50
2023/08/21 01:49:12;;;;;;;6.38;4.55;;;26.10;70.70;;;;;;5072511;28;20025;-44
2023/08/21 01:51:38;;;;;;;5.05;3.85;;;26.10;70.70;;;;;;5071224;28;20558;-46
2023/08/21 01:54:03;;;;;;;6.30;3.72;;;26.10;70.70;;;;;;5072312;28;20039;-45
2023/08/21 01:56:29;;;;;;;5.20;3.83;;;26.10;70.70;;;;;;5072258;28;20024;-41
2023/08/21 01:58:55;;;;;;;5.93;3.80;;;26.10;71.40;;;;;;5071076;28;20108;-43
2023/08/21 02:01:21;;;;;;;5.88;4.30;;;26.00;70.70;;;;;;5070995;28;20024;-44
2023/08/21 02:03:47;;;;;;;6.47;4.22;;;26.10;70.80;;;;;;5071274;28;20090;-47
2023/08/21 02:06:12;;;;;;;6.88;4.40;;;26.00;70.70;;;;;;5071084;28;20060;-42
2023/08/21 02:08:39;;;;;;;6.53;3.97;;;26.10;70.80;;;;;;5070886;28;20029;-43
2023/08/21 02:11:04;;;;;;;5.43;4.18;;;26.10;70.80;;;;;;5072066;28;20499;-47
2023/08/21 02:13:30;;;;;;;7.43;4.18;;;26.10;70.80;;;;;;5071576;28;20032;-48
2023/08/21 02:15:56;;;;;;;6.40;4.35;;;26.10;70.80;;;;;;5070847;28;20047;-46
2023/08/21 02:18:22;;;;;;;8.05;4.30;;;26.10;70.80;;;;;;5072074;28;20020;-44
2023/08/21 02:20:49;;;;;;;5.97;4.45;;;26.10;70.70;;;;;;5071979;28;20025;-47
2023/08/21 02:23:15;;;;;;;6.88;4.60;;;26.10;70.80;;;;;;5071742;28;20031;-47
2023/08/21 02:25:41;;;;;;;9.93;4.82;;;26.10;70.70;;;;;;5071935;28;20024;-50
2023/08/21 02:28:07;;;;;;;6.50;4.60;;;26.10;70.70;;;;;;5071845;28;20032;-48
2023/08/21 02:30:33;;;;;;;6.05;4.30;;;26.10;70.80;;;;;;5070721;28;20055;-45
2023/08/21 02:32:59;;;;;;;7.25;4.90;;;26.10;70.70;;;;;;5071595;28;20055;-44
2023/08/21 02:35:25;;;;;;;6.68;4.60;;;26.10;70.80;;;;;;5071789;28;20368;-48
2023/08/21 02:37:51;;;;;;;6.05;4.60;;;26.10;70.80;;;;;;5070571;28;20036;-48
2023/08/21 02:40:16;;;;;;;6.45;4.85;;;26.10;70.80;;;;;;5070443;28;20020;-47
2023/08/21 02:42:42;;;;;;;6.13;4.70;;;26.10;70.70;;;;;;5071610;28;20115;-42
2023/08/21 02:45:08;;;;;;;7.97;4.50;;;26.10;70.70;;;;;;5071343;28;20025;-42
2023/08/21 02:47:39;;;;;;;7.15;4.72;;;26.10;70.80;;;;;;5070500;28;20058;-42
2023/08/21 02:50:06;;;;;;;6.78;4.97;;;26.10;70.80;;;;;;5071593;28;20035;-48
2023/08/21 02:52:33;;;;;;;6.55;4.75;;;26.10;70.80;;;;;;5071332;28;20056;-43
2023/08/21 02:54:59;;;;;;;7.40;4.70;;;26.10;70.90;;;;;;5069971;28;20052;-48
2023/08/21 02:57:25;;;;;;;7.35;4.65;;;26.10;70.80;;;;;;5070297;28;20345;-45
2023/08/21 02:59:51;;;;;;;6.93;5.00;;;26.10;70.80;;;;;;5070338;28;20108;-43
2023/08/21 03:02:18;;;;;;;6.13;4.60;;;26.10;70.80;;;;;;5070245;28;20543;-42
2023/08/21 03:04:44;;;;;;;6.07;4.63;;;26.10;70.80;;;;;;5071405;28;20178;-48
2023/08/21 03:07:10;;;;;;;6.03;4.28;;;26.10;70.80;;;;;;5071449;28;20025;-41
2023/08/21 03:09:37;;;;;;;7.57;5.00;;;26.10;70.90;;;;;;5071457;28;20020;-44
2023/08/21 03:12:03;;;;;;;7.00;4.82;;;26.10;70.80;;;;;;5071407;28;20101;-42
2023/08/21 03:14:29;;;;;;;7.20;4.70;;;26.10;70.80;;;;;;5072104;28;20037;-45
2023/08/21 03:16:55;;;;;;;7.60;4.90;;;26.10;70.90;;;;;;5074256;28;20107;-43
2023/08/21 03:19:21;;;;;;;6.82;5.05;;;26.10;70.90;;;;;;5074089;28;20032;-42
2023/08/21 03:21:47;;;;;;;6.57;4.93;;;26.10;70.90;;;;;;5074081;28;20064;-44
2023/08/21 03:24:13;;;;;;;8.40;5.25;;;26.10;70.90;;;;;;5073693;28;20123;-45
2023/08/21 03:26:38;;;;;;;7.03;5.15;;;26.10;70.90;;;;;;5073986;28;20081;-47
2023/08/21 03:29:04;;;;;;;7.72;4.85;;;26.10;71.00;;;;;;5073971;28;20109;-42
2023/08/21 03:31:31;;;;;;;7.20;4.82;;;26.10;71.00;;;;;;5073948;28;20032;-42
2023/08/21 03:33:57;;;;;;;7.45;4.82;;;26.10;71.00;;;;;;5073371;28;20426;-45
2023/08/21 03:36:33;;;;;;;6.95;5.05;;;26.10;71.00;;;;;;5073907;28;20115;-43
2023/08/21 03:39:01;;;;;;;6.63;4.93;;;26.10;71.00;;;;;;5073823;28;20052;-44
2023/08/21 03:41:29;;;;;;;6.82;4.95;;;26.10;71.00;;;;;;5073711;28;20024;-41
2023/08/21 03:43:54;;;;;;;8.20;5.60;;;26.00;71.00;;;;;;5074507;28;20033;-44
2023/08/21 03:46:20;;;;;;;8.65;5.45;;;26.00;71.00;;;;;;5074801;28;20028;-41
2023/08/21 03:48:46;;;;;;;7.07;5.05;;;26.00;71.00;;;;;;5073607;28;20029;-42
2023/08/21 03:51:12;;;;;;;7.90;5.50;;;26.00;71.00;;;;;;5073275;28;20541;-42
2023/08/21 03:53:38;;;;;;;6.65;4.78;;;26.10;71.10;;;;;;5074249;28;20063;-43
2023/08/21 03:56:04;;;;;;;7.15;5.10;;;26.00;71.00;;;;;;5073372;28;20020;-43
2023/08/21 03:58:32;;;;;;;6.70;5.25;;;26.00;71.00;;;;;;5074390;28;20131;-44
2023/08/21 04:00:58;;;;;;;7.47;5.38;;;26.10;71.10;;;;;;5074615;28;20107;-41
2023/08/21 04:03:24;;;;;;;8.32;5.65;;;26.10;71.10;;;;;;5073021;28;20043;-42
2023/08/21 04:05:50;;;;;;;8.05;5.22;;;26.00;71.00;;;;;;5073530;28;20032;-42
2023/08/21 04:08:16;;;;;;;8.48;5.50;;;26.10;71.10;;;;;;5073248;28;20103;-43
2023/08/21 04:10:42;;;;;;;7.43;4.93;;;26.00;71.00;;;;;;5073327;28;20098;-42
2023/08/21 04:13:08;;;;;;;8.27;5.38;;;26.00;71.00;;;;;;5072872;28;20173;-42
2023/08/21 04:15:37;;;;;;;7.20;5.20;;;26.10;71.10;;;;;;5074567;28;20035;-41
2023/08/21 04:18:05;;;;;;;7.65;5.75;;;26.00;71.10;;;;;;5073362;28;20048;-42
2023/08/21 04:20:30;;;;;;;7.60;5.38;;;26.10;71.10;;;;;;5074357;28;20020;-44
2023/08/21 04:22:56;;;;;;;7.43;5.50;;;26.00;71.10;;;;;;5073923;28;20082;-41
2023/08/21 04:25:22;;;;;;;8.63;6.00;;;26.00;71.00;;;;;;5072551;28;20036;-46
2023/08/21 04:27:48;;;;;;;9.40;5.47;;;26.10;71.10;;;;;;5072888;28;20036;-45
2023/08/21 04:30:14;;;;;;;8.15;5.43;;;26.00;71.10;;;;;;5072839;28;20043;-46
2023/08/21 04:32:40;;;;;;;7.68;5.60;;;26.00;71.00;;;;;;5072750;28;20036;-42
2023/08/21 04:35:08;;;;;;;7.15;5.43;;;26.10;71.10;;;;;;5072493;28;20056;-41
2023/08/21 04:37:34;;;;;;;7.82;5.30;;;26.10;71.10;;;;;;5073935;28;20107;-42
2023/08/21 04:40:01;;;;;;;7.75;5.63;;;26.00;71.00;;;;;;5072689;28;20544;-42
2023/08/21 04:42:28;;;;;;;6.65;5.07;;;26.10;71.10;;;;;;5072639;28;20077;-43
2023/08/21 04:44:54;;;;;;;8.98;5.95;;;26.00;71.00;;;;;;5072294;28;20030;-43
2023/08/21 04:47:26;;;;;;;8.30;6.03;;;26.00;71.00;;;;;;5072554;28;20162;-43
2023/08/21 04:49:56;;;;;;;8.52;5.97;;;26.00;71.00;;;;;;5072551;28;20032;-42
2023/08/21 04:52:23;;;;;;;7.82;5.72;;;26.10;71.00;;;;;;5072392;28;20027;-42
2023/08/21 04:54:49;;;;;;;8.65;5.75;;;26.10;71.00;;;;;;5073109;28;20025;-42
2023/08/21 04:57:16;;;;;;;8.65;5.57;;;26.10;71.10;;;;;;5072354;28;20116;-42
2023/08/21 04:59:42;;;;;;;7.10;5.40;;;26.10;71.10;;;;;;5072333;28;20028;-43
2023/08/21 05:02:08;;;;;;;9.60;5.63;;;26.10;71.10;;;;;;5072246;28;20031;-41
2023/08/21 05:04:36;;;;;;;9.23;5.85;;;26.10;71.10;;;;;;5072980;28;20040;-43
2023/08/21 05:07:03;;;;;;;7.63;5.45;;;26.10;71.10;;;;;;5072171;28;20025;-46
2023/08/21 05:09:30;;;;;;;9.40;5.75;;;26.10;71.10;;;;;;5072023;28;20531;-42
2023/08/21 05:11:56;;;;;;;9.93;5.60;;;26.00;71.00;;;;;;5072086;28;20154;-45
2023/08/21 05:14:23;;;;;;;9.65;5.47;;;26.10;71.00;;;;;;5071520;28;20054;-45
2023/08/21 05:16:50;;;;;;;8.90;6.15;;;26.10;71.10;;;;;;5071906;28;20387;-42
2023/08/21 05:19:16;;;;;;;8.50;6.07;;;26.10;71.10;;;;;;5071900;28;20056;-46
2023/08/21 05:21:43;;;;;;;9.70;5.80;;;26.10;71.10;;;;;;5055528;28;20036;-41
2023/08/21 05:24:10;;;;;;;8.63;5.95;;;26.10;71.10;;;;;;5071362;28;20103;-42
2023/08/21 05:26:39;;;;;;;8.05;5.93;;;26.10;71.10;;;;;;5071766;28;20055;-44
2023/08/21 05:29:05;;;;;;;9.68;6.75;;;26.10;71.10;;;;;;5071733;28;20035;-43
2023/08/21 05:31:31;;;;;;;8.40;5.97;;;26.10;71.10;;;;;;5071637;28;20060;-42
2023/08/21 05:33:58;;;;;;;10.68;6.15;;;26.10;71.10;;;;;;5071130;28;20028;-41
2023/08/21 05:36:24;;;;;;;9.15;5.80;;;26.10;71.10;;;;;;5072210;28;20036;-42
2023/08/21 05:38:51;;;;;;;10.55;6.15;;;26.10;71.10;;;;;;5071039;28;20029;-41
2023/08/21 05:41:18;;;;;;;9.63;6.40;;;26.10;71.10;;;;;;5071532;28;20510;-42
2023/08/21 05:43:45;;;;;;;8.43;5.78;;;26.10;71.10;;;;;;5071052;28;20033;-44
2023/08/21 05:46:12;;;;;;;8.55;6.05;;;26.10;71.10;;;;;;5054847;28;20472;-41
2023/08/21 05:48:38;;;;;;;7.45;5.63;;;26.10;71.10;;;;;;5054735;28;20029;-41
2023/08/21 05:51:05;;;;;;;8.00;5.78;;;26.10;71.10;;;;;;5054776;28;20032;-45
2023/08/21 05:53:31;;;;;;;8.13;6.07;;;26.10;71.10;;;;;;5070753;28;20040;-41
2023/08/21 05:55:57;;;;;;;8.40;6.13;;;26.10;71.20;;;;;;5072331;28;20483;-42
2023/08/21 05:58:23;;;;;;;8.60;6.03;;;26.10;71.20;;;;;;5071147;28;20029;-42
2023/08/21 06:00:49;;;;;;;9.80;6.13;;;26.10;71.30;;;;;;5071027;28;20031;-41
2023/08/21 06:03:15;;;;;;;8.68;5.97;;;26.10;71.30;;;;;;5070620;28;20082;-46
2023/08/21 06:06:01;;;;;;;10.88;6.72;;;26.10;71.30;;;;;;5060669;28;20044;-47
2023/08/21 06:08:27;;;;;;;8.48;5.70;;;26.10;71.20;;;;;;5070912;28;20509;-45
2023/08/21 06:10:53;;;;;;;10.98;6.63;;;26.10;71.30;;;;;;5070953;28;20067;-48
2023/08/21 06:13:19;;;;;;;8.90;6.22;;;26.10;71.30;;;;;;5071636;28;20036;-44
2023/08/21 06:15:48;;;;;;;10.35;6.72;;;26.00;71.30;;;;;;5070841;28;20028;-45
2023/08/21 06:18:15;;;;;;;8.82;6.03;;;26.10;71.30;;;;;;5070803;28;20028;-44
2023/08/21 06:20:44;;;;;;;8.70;6.35;;;26.10;71.40;;;;;;5070785;28;20078;-50
2023/08/21 06:23:11;;;;;;;7.63;5.78;;;26.10;71.30;;;;;;5070307;28;20024;-42
2023/08/21 06:25:57;;;;;;;8.88;6.70;;;26.10;71.30;;;;;;5070916;28;20025;-50
2023/08/21 06:28:24;;;;;;;9.93;6.18;;;26.10;71.30;;;;;;5034391;28;20099;-42
2023/08/21 06:30:56;;;;;;;10.82;6.72;;;26.10;71.30;;;;;;5016747;28;20041;-44
2023/08/21 06:33:22;;;;;;;10.10;6.30;;;26.10;71.30;;;;;;5032572;28;20048;-45
2023/08/21 06:35:48;;;;;;;9.15;6.30;;;26.10;71.30;;;;;;5032886;28;20029;-42
2023/08/21 06:38:16;;;;;;;8.05;5.78;;;26.10;71.30;;;;;;5016375;28;20512;-43
2023/08/21 06:40:41;;;;;;;9.75;6.40;;;26.10;71.30;;;;;;5049466;28;20086;-48
2023/08/21 06:43:07;;;;;;;10.23;6.15;;;26.10;71.30;;;;;;5032391;28;20439;-47
2023/08/21 06:45:34;;;;;;;9.88;6.68;;;26.10;71.20;;;;;;5049295;28;20045;-45
2023/08/21 06:48:02;;;;;;;9.20;6.68;;;26.10;71.20;;;;;;5032555;28;20051;-47
2023/08/21 06:50:28;;;;;;;9.88;6.75;;;26.10;71.20;;;;;;5032613;28;20423;-46
2023/08/21 06:52:54;;;;;;;9.50;6.35;;;26.20;71.30;;;;;;5048756;28;20040;-43
2023/08/21 06:55:20;;;;;;;9.18;6.13;;;26.20;71.20;;;;;;5049035;28;20056;-46
2023/08/21 06:57:45;;;;;;;9.45;6.47;;;26.20;71.10;;;;;;5049286;28;20115;-45
2023/08/21 07:00:12;;;;;;;8.95;6.50;;;26.20;71.20;;;;;;5067902;28;20094;-42
2023/08/21 07:02:37;;;;;;;8.30;6.20;;;26.20;71.20;;;;;;5071400;28;20503;-47
2023/08/21 07:05:03;;;;;;;9.70;6.88;;;26.20;71.20;;;;;;5071265;28;20067;-48
2023/08/21 07:07:29;;;;;;;9.93;6.50;;;26.20;71.20;;;;;;5070261;28;20377;-47
2023/08/21 07:10:20;;;;;;;8.57;6.30;;;26.20;71.20;;;;;;5029703;28;20046;-55
2023/08/21 07:12:46;;;;;;;8.95;6.45;;;26.20;71.20;;;;;;5031042;28;20546;-48
2023/08/21 07:15:12;;;;;;;10.68;6.40;;;26.20;71.20;;;;;;5031464;28;20022;-51
2023/08/21 07:17:38;;;;;;;9.95;6.30;;;26.20;71.20;;;;;;5031402;28;20111;-55
2023/08/21 07:20:04;;;;;;;9.25;5.80;;;26.20;71.20;;;;;;5031352;28;20083;-54
2023/08/21 07:22:30;;;;;;;10.43;6.50;;;26.20;71.20;;;;;;5031336;28;20033;-52
2023/08/21 07:24:56;;;;;;;10.77;6.70;;;26.30;71.30;;;;;;5031086;28;20026;-49
2023/08/21 07:27:21;;;;;;;8.60;6.40;;;26.30;71.30;;;;;;5031291;28;20100;-52
2023/08/21 07:29:47;;;;;;;7.57;5.95;;;26.30;71.30;;;;;;5031292;28;20076;-49
2023/08/21 07:32:13;;;;;;;10.55;6.63;;;26.30;71.30;;;;;;5031296;28;20030;-51
2023/08/21 07:34:39;;;;;;;9.68;6.20;;;26.30;71.20;;;;;;5030878;28;20100;-55
2023/08/21 07:37:07;;;;;;;9.82;6.45;;;26.30;71.30;;;;;;5031181;28;20044;-55
2023/08/21 07:39:32;;;;;;;10.45;6.60;;;26.30;71.30;;;;;;5031156;28;20101;-55
2023/08/21 07:41:58;;;;;;;9.68;6.35;;;26.30;71.20;;;;;;5031169;28;20025;-51
2023/08/21 07:44:24;;;;;;;10.68;6.95;;;26.30;71.20;;;;;;5030917;28;20036;-48
2023/08/21 07:46:50;;;;;;;9.90;6.38;;;26.30;71.30;;;;;;5031157;28;20100;-53
2023/08/21 07:49:16;;;;;;;10.70;6.68;;;26.30;71.30;;;;;;5031040;28;20025;-54
2023/08/21 07:51:41;;;;;;;10.45;6.65;;;26.30;71.30;;;;;;5031106;28;20107;-55
2023/08/21 07:54:07;;;;;;;11.98;7.25;;;26.30;71.40;;;;;;5030716;28;20064;-52
2023/08/21 07:56:35;;;;;;;11.00;7.03;;;26.30;71.40;;;;;;5031078;28;20163;-48
2023/08/21 07:59:02;;;;;;;11.70;6.75;;;26.30;71.40;;;;;;5030996;28;20021;-53
2023/08/21 08:01:28;;;;;;;9.70;6.57;;;26.30;71.30;;;;;;5033635;28;20079;-50
2023/08/21 08:03:53;;;;;;;11.15;7.05;;;26.20;71.30;;;;;;5034256;28;20584;-50
2023/08/21 08:06:19;;;;;;;10.32;6.72;;;26.20;71.30;;;;;;5034492;28;20562;-55
2023/08/21 08:08:45;;;;;;;11.48;6.80;;;26.30;71.40;;;;;;5034363;28;20059;-54
2023/08/21 08:11:11;;;;;;;9.35;6.40;;;26.20;71.40;;;;;;5034538;28;20025;-46
2023/08/21 08:13:37;;;;;;;10.65;6.68;;;26.20;71.30;;;;;;5034070;28;20032;-48
2023/08/21 08:16:02;;;;;;;12.38;7.03;;;26.20;71.30;;;;;;5034393;28;20026;-55
2023/08/21 08:18:28;;;;;;;10.20;6.68;;;26.20;71.30;;;;;;5034339;28;20049;-51
2023/08/21 08:20:54;;;;;;;11.02;6.90;;;26.20;71.30;;;;;;5034248;28;20022;-48
2023/08/21 08:23:20;;;;;;;9.85;6.57;;;26.20;71.30;;;;;;5034039;28;20113;-48
2023/08/21 08:25:46;;;;;;;8.82;6.18;;;26.20;71.30;;;;;;5034320;28;20025;-49
2023/08/21 08:28:12;;;;;;;13.15;6.90;;;26.20;71.30;;;;;;5034140;28;20060;-51
2023/08/21 08:30:38;;;;;;;10.90;6.85;;;26.20;71.30;;;;;;5034090;28;20049;-50
2023/08/21 08:33:04;;;;;;;9.07;6.32;;;26.20;71.20;;;;;;5033659;28;20091;-48
2023/08/21 08:35:29;;;;;;;14.05;6.50;;;26.20;71.20;;;;;;5034402;28;20022;-48
2023/08/21 08:37:55;;;;;;;9.85;6.30;;;26.20;71.20;;;;;;5033860;28;20028;-48
2023/08/21 08:40:22;;;;;;;9.40;5.95;;;26.20;71.10;;;;;;5033995;28;20025;-48
2023/08/21 08:42:47;;;;;;;11.40;6.88;;;26.20;71.10;;;;;;5033638;28;20396;-50
2023/08/21 08:45:14;;;;;;;10.60;6.25;;;26.20;71.10;;;;;;5033875;28;20489;-53
2023/08/21 08:47:40;;;;;;;10.13;6.32;;;26.20;71.20;;;;;;5033680;28;20041;-53
2023/08/21 08:50:08;;;;;;;9.48;6.45;;;26.30;71.20;;;;;;5033685;28;20040;-50
2023/08/21 08:52:38;;;;;;;9.80;6.57;;;26.30;71.20;;;;;;5033671;28;20405;-50
2023/08/21 08:55:06;;;;;;;11.50;6.72;;;26.30;71.20;;;;;;5015833;28;20021;-51
2023/08/21 08:57:33;;;;;;;11.77;6.45;;;26.30;71.20;;;;;;5033606;28;20025;-49
2023/08/21 08:59:59;;;;;;;9.45;6.05;;;26.30;71.10;;;;;;5033621;28;20025;-52
2023/08/21 09:02:28;;;;;;;9.13;5.93;;;26.30;71.10;;;;;;5033547;28;20499;-53
2023/08/21 09:04:54;;;;;;;8.73;5.77;;;26.30;71.00;;;;;;5033229;28;20094;-55
2023/08/21 09:07:20;;;;;;;9.52;6.50;;;26.30;71.00;;;;;;5033483;28;20115;-50
2023/08/21 09:09:49;;;;;;;9.43;5.90;;;26.30;71.00;;;;;;5033412;28;20034;-52
2023/08/21 09:12:16;;;;;;;9.02;5.78;;;26.40;71.00;;;;;;5033348;28;20459;-51
2023/08/21 09:14:43;;;;;;;8.70;5.72;;;26.30;70.90;;;;;;5032925;28;20398;-52
2023/08/21 09:17:09;;;;;;;7.50;5.30;;;26.30;70.80;;;;;;5033470;28;20029;-51
2023/08/21 09:19:35;;;;;;;9.68;6.00;;;26.30;70.80;;;;;;5033153;28;20030;-55
2023/08/21 09:22:18;;;;;;;11.95;6.13;;;26.40;70.80;;;;;;5033213;28;20402;-55
2023/08/21 09:25:07;;;;;;;8.10;5.05;;;26.30;70.80;;;;;;5032933;28;20163;-55
2023/08/21 09:27:34;;;;;;;8.60;5.53;;;26.30;70.70;;;;;;5033265;28;20464;-55
2023/08/21 09:30:03;;;;;;;8.70;5.32;;;26.40;70.70;;;;;;5033042;28;20059;-54
2023/08/21 09:32:29;;;;;;;9.85;5.75;;;26.30;70.60;;;;;;5033005;28;20059;-50
2023/08/21 09:34:55;;;;;;;8.07;5.30;;;26.30;70.60;;;;;;5032587;28;20028;-51
2023/08/21 09:37:27;;;;;;;8.10;5.00;;;26.40;70.70;;;;;;5032892;28;20504;-55
2023/08/21 09:39:53;;;;;;;7.65;5.40;;;26.30;70.60;;;;;;5032740;28;20037;-55
2023/08/21 09:42:19;;;;;;;8.18;5.03;;;26.40;70.60;;;;;;5015001;28;20034;-55
2023/08/21 09:44:44;;;;;;;7.97;5.13;;;26.40;70.70;;;;;;5032427;28;20035;-55
2023/08/21 09:47:11;;;;;;;7.90;5.05;;;26.30;70.60;;;;;;5032696;28;20029;-54
2023/08/21 09:49:39;;;;;;;8.38;5.10;;;26.30;70.60;;;;;;5032567;28;20037;-55
2023/08/21 09:52:11;;;;;;;8.13;5.20;;;26.30;70.80;;;;;;5032567;28;20030;-55
2023/08/21 09:54:56;;;;;;;7.57;4.50;;;26.40;70.50;;;;;;5032299;28;20047;-49
2023/08/21 09:57:23;;;;;;;7.05;4.90;;;26.40;70.50;;;;;;5032506;28;20029;-54
2023/08/21 09:59:54;;;;;;;8.63;4.82;;;26.40;70.50;;;;;;5032349;28;20029;-50
2023/08/21 10:02:22;;;;;;;7.10;4.53;;;26.40;70.60;;;;;;5032402;28;20067;-51
2023/08/21 10:04:49;;;;;;;7.97;4.90;;;26.40;70.60;;;;;;5031976;28;20057;-54
2023/08/21 10:07:22;;;;;;;7.63;4.95;;;26.30;70.50;;;;;;5014663;28;20382;-55
2023/08/21 10:09:48;;;;;;;7.97;5.15;;;26.40;70.50;;;;;;5032131;28;20124;-52
2023/08/21 10:12:17;;;;;;;8.95;4.93;;;26.30;70.50;;;;;;5032204;28;20029;-55
2023/08/21 10:14:43;;;;;;;7.77;4.73;;;26.40;70.50;;;;;;5031834;28;20112;-53
2023/08/21 10:17:09;;;;;;;8.35;5.03;;;26.30;70.50;;;;;;5032025;28;20439;-51
2023/08/21 10:19:35;;;;;;;9.25;4.47;;;26.30;70.50;;;;;;5032042;28;20044;-55
2023/08/21 10:22:03;;;;;;;5.47;4.20;;;26.30;70.40;;;;;;5032120;28;20029;-55
2023/08/21 10:24:36;;;;;;;8.75;4.65;;;26.40;70.50;;;;;;5031404;28;20036;-52
2023/08/21 10:27:02;;;;;;;7.03;4.55;;;26.40;70.40;;;;;;5031986;28;20040;-54
2023/08/21 10:29:28;;;;;;;7.07;4.45;;;26.30;70.40;;;;;;5031899;28;20029;-55
2023/08/21 10:32:04;;;;;;;6.78;4.15;;;26.30;70.40;;;;;;5031825;28;20115;-47
2023/08/21 10:34:37;;;;;;;6.20;4.53;;;26.30;70.40;;;;;;5031562;28;20033;-52
2023/08/21 10:37:06;;;;;;;6.63;4.35;;;26.30;70.40;;;;;;5031893;28;20026;-55
2023/08/21 10:39:33;;;;;;;5.55;3.88;;;26.30;70.40;;;;;;5031907;28;20026;-55
2023/08/21 10:42:06;;;;;;;6.00;4.13;;;26.30;70.40;;;;;;5032244;28;20053;-52
2023/08/21 10:45:05;;;;;;;7.13;4.15;;;26.30;70.50;;;;;;5031497;28;20075;-51
2023/08/21 10:47:35;;;;;;;7.45;4.30;;;26.30;70.50;;;;;;5031416;28;20049;-53
2023/08/21 10:50:04;;;;;;;7.00;4.30;;;26.30;70.40;;;;;;5031783;28;20026;-53
2023/08/21 10:52:34;;;;;;;6.97;4.13;;;26.30;70.40;;;;;;5031706;28;20401;-48
2023/08/21 10:55:01;;;;;;;5.78;3.88;;;26.30;70.40;;;;;;5031345;28;20279;-49
2023/08/21 10:57:30;;;;;;;5.93;4.00;;;26.30;70.30;;;;;;5031644;28;20052;-55
2023/08/21 11:00:04;;;;;;;6.65;4.13;;;26.30;70.30;;;;;;5031531;28;20382;-55
2023/08/21 11:02:32;;;;;;;7.57;4.15;;;26.30;70.30;;;;;;5031646;28;20148;-55
2023/08/21 11:04:59;;;;;;;7.20;4.00;;;26.30;70.40;;;;;;5031272;28;20017;-55
2023/08/21 11:07:27;;;;;;;6.50;4.05;;;26.30;70.40;;;;;;5031457;28;20110;-52
2023/08/21 11:09:53;;;;;;;7.25;4.10;;;26.30;70.30;;;;;;5031380;28;20033;-55
2023/08/21 11:12:23;;;;;;;5.57;3.80;;;26.30;70.30;;;;;;5031524;28;20032;-52
2023/08/21 11:14:49;;;;;;;6.07;4.10;;;26.30;70.20;;;;;;5031203;28;20431;-49
2023/08/21 11:17:17;;;;;;;5.13;3.60;;;26.30;70.20;;;;;;5031377;28;20065;-53
2023/08/21 11:19:43;;;;;;;5.78;3.75;;;26.30;70.20;;;;;;5031240;28;20019;-51
2023/08/21 11:22:09;;;;;;;6.38;4.30;;;26.30;70.20;;;;;;5031359;28;20030;-54
2023/08/21 11:24:40;;;;;;;5.57;3.58;;;26.30;70.20;;;;;;5031072;28;20059;-53
2023/08/21 11:27:06;;;;;;;6.25;3.38;;;26.30;70.20;;;;;;5031347;28;20113;-48
2023/08/21 11:29:37;;;;;;;6.63;3.67;;;26.30;70.20;;;;;;5031239;28;20029;-53
2023/08/21 11:32:03;;;;;;;5.25;3.83;;;26.30;70.20;;;;;;5031310;28;20485;-54
2023/08/21 11:34:29;;;;;;;5.88;3.70;;;26.30;70.20;;;;;;5030817;28;20030;-55
2023/08/21 11:36:55;;;;;;;4.85;3.38;;;26.30;70.20;;;;;;5034620;28;20140;-50
2023/08/21 11:39:22;;;;;;;5.85;3.55;;;26.30;70.20;;;;;;5035042;28;20100;-55
2023/08/21 11:41:56;;;;;;;6.82;3.67;;;26.30;70.10;;;;;;5034973;28;20084;-52
2023/08/21 11:44:22;;;;;;;6.03;3.63;;;26.30;70.20;;;;;;5034705;28;20030;-49
2023/08/21 11:46:52;;;;;;;6.50;3.45;;;26.30;70.00;;;;;;5034923;28;20092;-55
2023/08/21 11:49:18;;;;;;;6.75;3.53;;;26.30;69.90;;;;;;5035111;28;20471;-55
2023/08/21 11:51:46;;;;;;;6.03;3.75;;;26.30;70.10;;;;;;5034872;28;20108;-52
2023/08/21 11:54:12;;;;;;;5.28;3.40;;;26.30;70.10;;;;;;5034491;28;20069;-54
2023/08/21 11:56:39;;;;;;;5.45;3.50;;;26.30;70.10;;;;;;5034812;28;20049;-53
2023/08/21 11:59:05;;;;;;;6.15;3.60;;;26.30;70.10;;;;;;5034682;28;20397;-54
2023/08/21 12:01:34;;;;;;;5.75;3.63;;;26.30;70.10;;;;;;5034730;28;20068;-55
2023/08/21 12:04:00;;;;;;;4.30;3.10;;;26.30;70.10;;;;;;5034442;28;20057;-55
2023/08/21 12:06:26;;;;;;;4.65;3.33;;;26.30;70.10;;;;;;5034740;28;20073;-54
2023/08/21 12:08:52;;;;;;;5.22;3.40;;;26.30;70.10;;;;;;5034410;28;20037;-53
2023/08/21 12:11:18;;;;;;;5.18;3.55;;;26.30;70.10;;;;;;5034539;28;20026;-55
2023/08/21 12:13:44;;;;;;;6.63;3.30;;;26.30;70.10;;;;;;5034078;28;20037;-55
2023/08/21 12:16:10;;;;;;;6.22;3.47;;;26.30;70.20;;;;;;5034299;28;20060;-55
2023/08/21 12:18:35;;;;;;;5.93;2.95;;;26.30;70.20;;;;;;5034448;28;20049;-55
2023/08/21 12:21:01;;;;;;;4.82;3.30;;;26.30;70.20;;;;;;5034383;28;20393;-53
2023/08/21 12:23:28;;;;;;;4.90;3.47;;;26.30;70.20;;;;;;5034078;28;20038;-49
2023/08/21 12:25:53;;;;;;;4.45;3.10;;;26.30;70.20;;;;;;5034189;28;20029;-53
2023/08/21 12:28:19;;;;;;;5.30;3.53;;;26.30;70.20;;;;;;5034150;28;20036;-55
2023/08/21 12:30:46;;;;;;;5.43;3.55;;;26.20;70.10;;;;;;5034004;28;20022;-55
2023/08/21 12:33:12;;;;;;;4.68;3.17;;;26.30;70.20;;;;;;5033697;28;20026;-55
2023/08/21 12:35:38;;;;;;;5.07;3.17;;;26.30;70.10;;;;;;5034116;28;20037;-55
2023/08/21 12:38:12;;;;;;;4.55;2.90;;;26.20;70.00;;;;;;5033937;28;20029;-55
2023/08/21 12:40:39;;;;;;;6.90;3.65;;;26.30;70.10;;;;;;5034054;28;20018;-55
2023/08/21 12:43:04;;;;;;;5.40;2.90;;;26.30;70.00;;;;;;5033547;28;20053;-54
2023/08/21 12:45:30;;;;;;;5.22;2.97;;;26.30;70.10;;;;;;5033878;28;20496;-55
2023/08/21 12:47:56;;;;;;;3.95;2.72;;;26.30;70.10;;;;;;5033534;28;20123;-55